createdAt,value
2023-05-12T00:01:21.848Z,5.30
2023-05-12T00:03:49.000Z,5.55
2023-05-12T00:06:16.107Z,5.75
2023-05-12T00:08:42.854Z,5.10
2023-05-12T00:11:09.653Z,5.70
2023-05-12T00:13:36.558Z,5.47
2023-05-12T00:16:04.297Z,5.72
2023-05-12T00:18:31.258Z,5.40
2023-05-12T00:20:58.176Z,5.68
2023-05-12T00:23:25.086Z,5.60
2023-05-12T00:25:51.926Z,5.30
2023-05-12T00:28:19.343Z,5.55
2023-05-12T00:30:46.334Z,5.88
2023-05-12T00:33:13.494Z,5.50
2023-05-12T00:35:40.292Z,5.10
2023-05-12T00:38:07.151Z,5.13
2023-05-12T00:40:33.978Z,5.38
2023-05-12T00:43:00.710Z,4.95
2023-05-12T00:45:29.716Z,5.10
2023-05-12T00:47:57.296Z,5.28
2023-05-12T00:50:24.473Z,5.47
2023-05-12T00:52:51.868Z,5.30
2023-05-12T00:55:18.910Z,4.63
2023-05-12T00:57:45.993Z,4.90
2023-05-12T01:00:13.257Z,5.03
2023-05-12T01:02:40.436Z,4.78
2023-05-12T01:05:09.840Z,5.55
2023-05-12T01:07:39.011Z,5.32
2023-05-12T01:10:20.748Z,4.60
2023-05-12T01:12:48.333Z,5.47
2023-05-12T01:15:15.835Z,5.90
2023-05-12T01:17:47.859Z,5.38
2023-05-12T01:20:18.943Z,4.80
2023-05-12T01:22:47.998Z,4.88
2023-05-12T01:25:15.601Z,4.60
2023-05-12T01:27:43.086Z,5.68
2023-05-12T01:30:12.889Z,4.97
2023-05-12T01:32:40.498Z,5.50
2023-05-12T01:35:07.763Z,5.45
2023-05-12T01:37:34.510Z,5.13
2023-05-12T01:40:01.805Z,5.43
2023-05-12T01:42:28.849Z,5.47
2023-05-12T01:44:55.684Z,5.30
2023-05-12T01:47:22.478Z,4.88
2023-05-12T01:49:49.266Z,4.72
2023-05-12T01:52:16.039Z,5.35
2023-05-12T01:54:42.826Z,5.00
2023-05-12T01:57:09.597Z,4.82
2023-05-12T01:59:36.726Z,4.80
2023-05-12T02:02:03.853Z,5.78
2023-05-12T02:04:30.670Z,4.82
2023-05-12T02:06:57.435Z,4.95
2023-05-12T02:09:24.212Z,4.78
2023-05-12T02:11:50.960Z,4.80
2023-05-12T02:14:17.721Z,4.90
2023-05-12T02:16:44.597Z,4.90
2023-05-12T02:19:11.469Z,5.32
2023-05-12T02:21:38.285Z,5.47
2023-05-12T02:24:05.322Z,5.10
2023-05-12T02:26:32.162Z,5.38
2023-05-12T02:28:58.956Z,5.03
2023-05-12T02:31:25.838Z,5.10
2023-05-12T02:33:52.880Z,5.20
2023-05-12T02:36:19.731Z,5.10
2023-05-12T02:38:46.614Z,5.07
2023-05-12T02:41:13.391Z,5.32
2023-05-12T02:43:40.165Z,5.45
2023-05-12T02:46:07.020Z,5.32
2023-05-12T02:48:33.855Z,5.63
2023-05-12T02:51:00.671Z,5.07
2023-05-12T02:53:27.700Z,6.28
2023-05-12T02:55:54.445Z,6.03
2023-05-12T02:58:21.506Z,5.70
2023-05-12T03:00:54.117Z,5.38
2023-05-12T03:03:27.143Z,6.80
2023-05-12T03:05:53.962Z,6.22
2023-05-12T03:08:20.789Z,6.85
2023-05-12T03:10:47.633Z,6.70
2023-05-12T03:13:14.391Z,6.10
2023-05-12T03:15:41.193Z,6.70
2023-05-12T03:18:08.031Z,5.90
2023-05-12T03:20:34.980Z,6.60
2023-05-12T03:23:01.840Z,5.90
2023-05-12T03:25:28.761Z,6.30
2023-05-12T03:27:55.605Z,6.97
2023-05-12T03:30:22.387Z,7.13
2023-05-12T03:32:49.180Z,6.57
2023-05-12T03:35:16.212Z,5.55
2023-05-12T03:37:42.947Z,7.88
2023-05-12T03:40:10.461Z,7.15
2023-05-12T03:42:37.233Z,6.85
2023-05-12T03:45:05.326Z,6.68
2023-05-12T03:47:32.244Z,7.18
2023-05-12T03:49:59.185Z,7.22
2023-05-12T03:52:25.959Z,7.15
2023-05-12T03:54:52.842Z,6.47
2023-05-12T03:57:19.695Z,6.53
2023-05-12T03:59:46.518Z,6.60
2023-05-12T04:02:13.376Z,7.00
2023-05-12T04:04:40.131Z,7.55
2023-05-12T04:07:07.384Z,7.32
2023-05-12T04:09:34.313Z,7.43
2023-05-12T04:12:01.150Z,6.95
2023-05-12T04:14:38.966Z,7.45
2023-05-12T04:17:09.384Z,6.93
2023-05-12T04:19:36.239Z,6.72
2023-05-12T04:22:02.973Z,6.47
2023-05-12T04:24:29.760Z,6.28
2023-05-12T04:26:57.806Z,6.65
2023-05-12T04:29:24.567Z,6.68
2023-05-12T04:31:51.430Z,6.32
2023-05-12T04:34:18.272Z,7.55
2023-05-12T04:36:45.345Z,7.20
2023-05-12T04:39:13.065Z,6.15
2023-05-12T04:41:39.856Z,6.75
2023-05-12T04:44:06.846Z,7.20
2023-05-12T04:46:33.764Z,6.50
2023-05-12T04:49:00.596Z,6.72
2023-05-12T04:51:27.375Z,5.97
2023-05-12T04:53:54.145Z,6.05
2023-05-12T04:56:22.126Z,5.65
2023-05-12T04:58:49.052Z,6.25
2023-05-12T05:01:16.099Z,5.95
2023-05-12T05:03:43.234Z,5.53
2023-05-12T05:06:10.094Z,5.90
2023-05-12T05:08:36.953Z,5.63
2023-05-12T05:11:03.742Z,5.95
2023-05-12T05:13:30.721Z,6.07
2023-05-12T05:15:57.484Z,5.70
2023-05-12T05:18:24.725Z,5.88
2023-05-12T05:20:57.791Z,5.97
2023-05-12T05:23:26.064Z,5.90
2023-05-12T05:25:53.382Z,6.00
2023-05-12T05:28:20.176Z,6.25
2023-05-12T05:30:47.115Z,5.50
2023-05-12T05:33:14.012Z,5.75
2023-05-12T05:35:41.939Z,6.18
2023-05-12T05:38:08.769Z,6.07
2023-05-12T05:40:45.374Z,5.45
2023-05-12T05:43:19.465Z,5.60
2023-05-12T05:45:46.324Z,5.72
2023-05-12T05:48:13.490Z,5.97
2023-05-12T05:50:40.705Z,5.93
2023-05-12T05:53:07.634Z,5.38
2023-05-12T05:55:34.367Z,5.97
2023-05-12T05:58:01.125Z,4.93
2023-05-12T06:00:28.039Z,5.70
2023-05-12T06:02:54.907Z,4.97
2023-05-12T06:05:22.314Z,4.82
2023-05-12T06:07:49.260Z,4.57
2023-05-12T06:10:17.442Z,5.00
2023-05-12T06:12:44.346Z,5.30
2023-05-12T06:15:11.668Z,4.72
2023-05-12T06:17:39.066Z,4.85
2023-05-12T06:20:06.652Z,4.88
2023-05-12T06:22:34.700Z,4.15
2023-05-12T06:25:02.362Z,4.45
2023-05-12T06:27:29.519Z,4.35
2023-05-12T06:29:56.358Z,4.40
2023-05-12T06:32:23.166Z,4.57
2023-05-12T06:34:49.939Z,4.38
2023-05-12T06:37:16.807Z,4.70
2023-05-12T06:39:43.620Z,4.00
2023-05-12T06:42:11.476Z,4.57
2023-05-12T06:44:39.999Z,4.32
2023-05-12T06:47:08.772Z,3.60
2023-05-12T06:49:37.031Z,4.30
2023-05-12T06:52:05.639Z,4.57
2023-05-12T06:54:32.764Z,4.40
2023-05-12T06:56:59.590Z,4.00
2023-05-12T06:59:26.407Z,4.13
2023-05-12T07:01:53.230Z,4.60
2023-05-12T07:04:20.047Z,4.72
2023-05-12T07:06:46.860Z,4.05
2023-05-12T07:09:14.145Z,4.35
2023-05-12T07:11:41.000Z,4.55
2023-05-12T07:14:07.761Z,4.13
2023-05-12T07:16:34.565Z,4.45
2023-05-12T07:19:01.473Z,4.18
2023-05-12T07:21:29.447Z,4.30
2023-05-12T07:23:56.220Z,3.90
2023-05-12T07:26:24.264Z,3.90
2023-05-12T07:28:51.096Z,4.00
2023-05-12T07:31:18.039Z,4.25
2023-05-12T07:33:44.852Z,4.43
2023-05-12T07:36:11.668Z,4.30
2023-05-12T07:38:38.683Z,3.95
2023-05-12T07:41:05.603Z,4.43
2023-05-12T07:43:32.442Z,3.95
2023-05-12T07:46:01.098Z,3.97
2023-05-12T07:48:27.984Z,4.05
2023-05-12T07:50:55.069Z,3.53
2023-05-12T07:53:22.003Z,3.92
2023-05-12T07:55:48.803Z,4.38
2023-05-12T07:58:15.620Z,3.85
2023-05-12T08:00:42.478Z,4.18
2023-05-12T08:03:09.331Z,4.15
2023-05-12T08:05:36.466Z,4.47
2023-05-12T08:08:03.247Z,4.40
2023-05-12T08:10:32.525Z,3.78
2023-05-12T08:12:59.289Z,3.85
2023-05-12T08:15:26.132Z,4.50
2023-05-12T08:17:52.988Z,3.20
2023-05-12T08:20:20.312Z,4.40
2023-05-12T08:22:47.920Z,3.65
2023-05-12T08:25:14.901Z,4.10
2023-05-12T08:27:41.782Z,3.58
2023-05-12T08:30:09.602Z,3.95
2023-05-12T08:32:36.790Z,3.40
2023-05-12T08:35:03.930Z,4.45
2023-05-12T08:37:33.714Z,4.13
2023-05-12T08:40:01.688Z,3.83
2023-05-12T08:42:37.282Z,3.90
2023-05-12T08:45:04.514Z,3.75
2023-05-12T08:47:33.689Z,3.42
2023-05-12T08:50:04.806Z,3.60
2023-05-12T08:52:36.013Z,3.45
2023-05-12T08:55:04.590Z,3.83
2023-05-12T08:57:32.185Z,3.40
2023-05-12T09:00:00.030Z,3.63
2023-05-12T09:02:37.621Z,3.63
2023-05-12T09:05:09.250Z,4.20
2023-05-12T09:07:39.672Z,3.28
2023-05-12T09:10:13.385Z,3.50
2023-05-12T09:12:47.354Z,4.07
2023-05-12T09:15:23.338Z,3.80
2023-05-12T09:17:50.448Z,3.63
2023-05-12T09:20:30.412Z,3.30
2023-05-12T09:22:58.493Z,3.30
2023-05-12T09:25:25.613Z,3.03
2023-05-12T09:27:56.556Z,3.30
2023-05-12T09:30:31.669Z,3.28
2023-05-12T09:33:09.128Z,3.30
2023-05-12T09:35:40.661Z,3.30
2023-05-12T09:38:12.280Z,3.45
2023-05-12T09:40:39.762Z,3.65
2023-05-12T09:43:07.737Z,3.50
2023-05-12T09:45:38.980Z,3.40
2023-05-12T09:48:13.787Z,4.03
2023-05-12T09:50:51.161Z,3.60
2023-05-12T09:53:19.340Z,3.58
2023-05-12T09:55:47.364Z,3.28
2023-05-12T09:58:16.850Z,3.58
2023-05-12T10:01:06.654Z,3.45
2023-05-12T10:03:33.418Z,3.58
2023-05-12T10:06:02.683Z,3.60
2023-05-12T10:08:45.016Z,3.50
2023-05-12T10:11:12.349Z,4.28
2023-05-12T10:13:39.818Z,4.90
2023-05-12T10:16:07.636Z,3.20
2023-05-12T10:18:35.092Z,3.47
2023-05-12T10:21:04.150Z,3.88
2023-05-12T10:23:31.853Z,3.85
2023-05-12T10:26:02.234Z,3.65
2023-05-12T10:28:30.297Z,3.40
2023-05-12T10:30:58.526Z,3.30
2023-05-12T10:33:25.812Z,3.10
2023-05-12T10:35:53.156Z,3.58
2023-05-12T10:38:20.264Z,2.90
2023-05-12T10:41:01.234Z,3.25
2023-05-12T10:43:38.913Z,3.63
2023-05-12T10:46:19.208Z,3.05
2023-05-12T10:49:28.089Z,3.50
2023-05-12T10:51:59.934Z,2.70
2023-05-12T10:54:26.847Z,3.53
2023-05-12T10:56:59.973Z,2.83
2023-05-12T10:59:27.515Z,3.42
2023-05-12T11:02:03.982Z,3.22
2023-05-12T11:04:53.368Z,3.22
2023-05-12T11:07:24.262Z,3.00
2023-05-12T11:09:58.442Z,2.72
2023-05-12T11:14:54.155Z,3.08
2023-05-12T11:17:21.067Z,2.80
2023-05-12T11:19:49.790Z,3.35
2023-05-12T11:22:21.687Z,2.83
2023-05-12T11:24:49.615Z,3.58
2023-05-12T11:27:18.075Z,3.03
2023-05-12T11:29:55.297Z,3.33
2023-05-12T11:32:22.116Z,3.28
2023-05-12T11:35:28.127Z,3.33
2023-05-12T11:40:23.811Z,3.30
2023-05-12T11:42:56.162Z,2.95
2023-05-12T11:45:30.444Z,3.13
2023-05-12T11:48:11.460Z,3.17
2023-05-12T11:50:43.518Z,3.00
2023-05-12T11:53:13.632Z,3.47
2023-05-12T11:55:56.872Z,3.20
2023-05-12T11:58:30.667Z,3.00
2023-05-12T12:01:08.910Z,3.60
2023-05-12T12:03:47.687Z,3.10
2023-05-12T12:06:15.047Z,3.45
2023-05-12T12:08:56.151Z,3.22
2023-05-12T12:11:24.318Z,2.90
2023-05-12T12:13:56.591Z,4.30
2023-05-12T12:16:33.085Z,3.22
2023-05-12T12:19:00.188Z,6.25
2023-05-12T12:21:27.098Z,3.85
2023-05-12T12:23:53.884Z,3.90
2023-05-12T12:26:21.523Z,3.60
2023-05-12T12:28:48.772Z,2.80
2023-05-12T12:31:16.520Z,3.10
2023-05-12T12:33:43.398Z,3.50
2023-05-12T12:36:10.306Z,3.08
2023-05-12T12:38:37.984Z,3.20
2023-05-12T12:41:05.239Z,3.15
2023-05-12T12:43:32.497Z,4.22
2023-05-12T12:45:59.452Z,3.10
2023-05-12T12:48:28.547Z,3.10
2023-05-12T12:50:56.062Z,3.00
2023-05-12T12:53:22.819Z,3.10
2023-05-12T12:55:49.630Z,3.08
2023-05-12T12:58:16.371Z,3.47
2023-05-12T13:00:43.470Z,3.30
2023-05-12T13:03:10.353Z,3.05
2023-05-12T13:05:37.711Z,3.05
2023-05-12T13:08:04.863Z,3.85
2023-05-12T13:10:31.669Z,2.92
2023-05-12T13:12:58.540Z,3.17
2023-05-12T13:15:25.754Z,3.22
2023-05-12T13:17:52.931Z,3.42
2023-05-12T13:20:19.996Z,2.90
2023-05-12T13:22:47.695Z,3.05
2023-05-12T13:25:14.738Z,3.10
2023-05-12T13:27:41.587Z,2.97
2023-05-12T13:30:10.867Z,3.45
2023-05-12T13:32:39.723Z,3.95
2023-05-12T13:35:06.836Z,3.00
2023-05-12T13:37:33.660Z,3.25
2023-05-12T13:40:00.772Z,3.65
2023-05-12T13:42:27.598Z,3.10
2023-05-12T13:44:54.528Z,3.47
2023-05-12T13:47:21.401Z,3.25
2023-05-12T13:49:48.144Z,3.17
2023-05-12T13:52:16.154Z,3.30
2023-05-12T13:54:43.017Z,3.08
2023-05-12T13:57:09.996Z,3.13
2023-05-12T13:59:36.755Z,2.85
2023-05-12T14:02:03.917Z,3.50
2023-05-12T14:04:30.968Z,3.80
2023-05-12T14:06:58.065Z,3.25
2023-05-12T14:09:24.846Z,2.75
2023-05-12T14:11:52.015Z,3.20
2023-05-12T14:14:18.964Z,3.35
2023-05-12T14:16:45.797Z,3.10
2023-05-12T14:19:12.928Z,3.03
2023-05-12T14:21:41.158Z,2.95
2023-05-12T14:24:08.870Z,3.58
2023-05-12T14:26:38.876Z,3.17
2023-05-12T14:29:06.924Z,3.40
2023-05-12T14:31:35.153Z,3.22
2023-05-12T14:34:03.871Z,3.20
2023-05-12T14:36:30.856Z,3.70
2023-05-12T14:39:58.778Z,3.33
2023-05-12T14:42:28.448Z,3.22
2023-05-12T14:44:55.539Z,3.95
2023-05-12T14:47:22.465Z,3.20
2023-05-12T14:49:49.322Z,3.67
2023-05-12T14:52:16.245Z,4.32
2023-05-12T14:54:43.055Z,3.50
2023-05-12T14:57:10.592Z,3.75
2023-05-12T14:59:38.651Z,3.70
2023-05-12T15:02:05.922Z,4.18
2023-05-12T15:04:32.732Z,4.00
2023-05-12T15:07:28.206Z,3.88
2023-05-12T15:09:54.994Z,4.75
2023-05-12T15:12:21.786Z,3.75
2023-05-12T15:14:48.572Z,3.92
2023-05-12T15:17:15.962Z,4.00
2023-05-12T15:19:43.018Z,3.20
2023-05-12T15:22:09.911Z,3.90
2023-05-12T15:24:36.827Z,3.50
2023-05-12T15:27:03.874Z,4.40
2023-05-12T15:29:32.426Z,3.33
2023-05-12T15:31:59.320Z,4.32
2023-05-12T15:34:26.294Z,3.63
2023-05-12T15:36:53.127Z,3.75
2023-05-12T15:39:21.634Z,3.97
2023-05-12T15:41:50.351Z,4.40
2023-05-12T15:44:17.241Z,3.50
2023-05-12T15:46:44.083Z,3.63
2023-05-12T15:49:11.172Z,3.00
2023-05-12T15:51:38.136Z,3.97
2023-05-12T15:54:07.134Z,3.50
2023-05-12T15:56:36.112Z,3.35
2023-05-12T15:59:05.115Z,3.45
2023-05-12T16:01:32.067Z,3.38
2023-05-12T16:03:59.321Z,3.67
2023-05-12T16:06:26.311Z,3.70
2023-05-12T16:08:53.296Z,3.95
2023-05-12T16:11:20.254Z,4.10
2023-05-12T16:13:47.237Z,3.97
2023-05-12T16:16:15.598Z,4.28
2023-05-12T16:18:43.606Z,3.83
2023-05-12T16:21:11.861Z,5.18
2023-05-12T16:23:38.778Z,4.28
2023-05-12T16:26:06.043Z,3.53
2023-05-12T16:28:34.472Z,3.35
2023-05-12T16:31:02.382Z,3.60
2023-05-12T16:33:29.878Z,3.60
2023-05-12T16:35:57.510Z,3.60
2023-05-12T16:38:25.073Z,3.67
2023-05-12T16:40:51.953Z,3.45
2023-05-12T16:43:18.702Z,3.28
2023-05-12T16:45:45.543Z,3.55
2023-05-12T16:48:12.353Z,3.33
2023-05-12T16:50:39.112Z,3.70
2023-05-12T16:53:06.079Z,4.72
2023-05-12T16:55:33.160Z,3.75
2023-05-12T16:58:00.013Z,3.78
2023-05-12T17:00:26.823Z,3.45
2023-05-12T17:02:53.791Z,3.95
2023-05-12T17:05:21.165Z,3.67
2023-05-12T17:07:48.368Z,5.40
2023-05-12T17:10:15.187Z,3.42
2023-05-12T17:12:42.411Z,3.65
2023-05-12T17:15:10.448Z,3.72
2023-05-12T17:17:37.538Z,3.40
2023-05-12T17:20:06.003Z,3.92
2023-05-12T17:22:34.855Z,4.00
2023-05-12T17:25:01.696Z,3.63
2023-05-12T17:27:28.643Z,3.97
2023-05-12T17:29:56.786Z,4.13
2023-05-12T17:32:23.728Z,3.60
2023-05-12T17:34:51.141Z,3.50
2023-05-12T17:37:18.172Z,3.63
2023-05-12T17:39:46.673Z,3.50
2023-05-12T17:42:13.566Z,3.17
2023-05-12T17:44:40.352Z,3.58
2023-05-12T17:47:07.530Z,3.28
2023-05-12T17:49:34.446Z,3.22
2023-05-12T17:52:01.222Z,3.50
2023-05-12T17:54:28.121Z,3.92
2023-05-12T17:56:55.497Z,3.13
2023-05-12T17:59:22.496Z,3.50
2023-05-12T18:01:49.469Z,3.47
2023-05-12T18:04:16.444Z,4.25
2023-05-12T18:06:43.837Z,3.22
2023-05-12T18:09:10.873Z,3.65
2023-05-12T18:11:37.742Z,3.50
2023-05-12T18:14:05.978Z,3.65
2023-05-12T18:16:33.487Z,3.70
2023-05-12T18:19:00.629Z,4.00
2023-05-12T18:21:27.695Z,4.00
2023-05-12T18:23:55.189Z,3.70
2023-05-12T18:26:22.997Z,4.93
2023-05-12T18:28:49.799Z,4.40
2023-05-12T18:31:19.528Z,4.05
2023-05-12T18:33:49.238Z,3.63
2023-05-12T18:36:16.763Z,4.22
2023-05-12T18:38:44.208Z,4.97
2023-05-12T18:41:11.855Z,3.80
2023-05-12T18:43:38.738Z,3.78
2023-05-12T18:46:06.200Z,3.92
2023-05-12T18:48:33.200Z,3.65
2023-05-12T18:51:01.285Z,3.70
2023-05-12T18:53:28.270Z,4.22
2023-05-12T18:55:55.181Z,3.97
2023-05-12T18:58:22.011Z,3.72
2023-05-12T19:00:48.808Z,4.70
2023-05-12T19:03:16.270Z,4.22
2023-05-12T19:05:44.791Z,4.50
2023-05-12T19:08:12.554Z,3.90
2023-05-12T19:10:40.084Z,3.90
2023-05-12T19:13:07.224Z,3.78
2023-05-12T19:15:33.997Z,3.47
2023-05-12T19:18:00.979Z,4.65
2023-05-12T19:20:28.975Z,3.83
2023-05-12T19:22:55.985Z,3.63
2023-05-12T19:25:23.136Z,5.15
2023-05-12T19:27:50.919Z,3.58
2023-05-12T19:30:17.905Z,3.83
2023-05-12T19:32:46.081Z,4.25
2023-05-12T19:35:16.752Z,4.38
2023-05-12T19:37:43.909Z,4.07
2023-05-12T19:40:11.115Z,4.05
2023-05-12T19:42:38.064Z,4.18
2023-05-12T19:45:05.920Z,4.32
2023-05-12T19:47:33.458Z,4.38
2023-05-12T19:50:00.738Z,3.88
2023-05-12T19:52:30.605Z,4.53
2023-05-12T19:54:57.630Z,4.70
2023-05-12T19:57:24.457Z,4.20
2023-05-12T19:59:51.607Z,4.47
2023-05-12T20:02:18.507Z,4.43
2023-05-12T20:04:45.647Z,4.57
2023-05-12T20:07:12.455Z,4.75
2023-05-12T20:09:39.199Z,4.70
2023-05-12T20:12:08.026Z,4.95
2023-05-12T20:14:38.415Z,5.22
2023-05-12T20:17:07.187Z,4.60
2023-05-12T20:19:34.093Z,5.05
2023-05-12T20:22:01.424Z,5.15
2023-05-12T20:24:28.296Z,5.25
2023-05-12T20:26:58.244Z,4.50
2023-05-12T20:29:25.944Z,4.90
2023-05-12T20:31:52.873Z,5.82
2023-05-12T20:34:19.852Z,4.97
2023-05-12T20:36:46.990Z,4.50
2023-05-12T20:39:14.012Z,4.88
2023-05-12T20:41:42.797Z,4.35
2023-05-12T20:44:09.728Z,4.65
2023-05-12T20:46:38.427Z,4.65
2023-05-12T20:49:06.195Z,5.68
2023-05-12T20:51:33.391Z,4.80
2023-05-12T20:54:00.374Z,4.85
2023-05-12T20:56:27.318Z,4.95
2023-05-12T20:58:54.278Z,5.63
2023-05-12T21:01:21.226Z,5.18
2023-05-12T21:03:48.462Z,5.45
2023-05-12T21:06:15.577Z,4.85
2023-05-12T21:08:42.414Z,4.68
2023-05-12T21:11:19.057Z,4.28
2023-05-12T21:13:47.199Z,4.97
2023-05-12T21:16:14.853Z,4.93
2023-05-12T21:18:41.819Z,4.72
2023-05-12T21:21:08.726Z,4.78
2023-05-12T21:23:38.806Z,5.57
2023-05-12T21:26:05.931Z,5.05
2023-05-12T21:28:32.789Z,5.22
2023-05-12T21:30:59.581Z,5.32
2023-05-12T21:33:26.342Z,5.25
2023-05-12T21:35:53.128Z,5.32
2023-05-12T21:38:20.927Z,4.63
2023-05-12T21:40:54.928Z,5.63
2023-05-12T21:43:21.778Z,5.38
2023-05-12T21:45:48.553Z,5.82
2023-05-12T21:48:15.487Z,5.75
2023-05-12T21:50:42.258Z,5.40
2023-05-12T21:53:09.019Z,6.50
2023-05-12T21:55:36.055Z,5.07
2023-05-12T21:58:02.839Z,5.80
2023-05-12T22:00:29.654Z,6.53
2023-05-12T22:02:56.596Z,5.72
2023-05-12T22:05:23.900Z,5.68
2023-05-12T22:07:50.638Z,5.82
2023-05-12T22:10:17.374Z,5.47
2023-05-12T22:12:45.642Z,5.97
2023-05-12T22:15:12.746Z,5.72
2023-05-12T22:17:39.882Z,5.75
2023-05-12T22:20:08.239Z,5.65
2023-05-12T22:22:35.040Z,6.03
2023-05-12T22:25:26.834Z,6.00
2023-05-12T22:27:53.730Z,6.28
2023-05-12T22:30:20.797Z,5.53
2023-05-12T22:32:47.874Z,6.07
2023-05-12T22:35:14.825Z,5.65
2023-05-12T22:37:41.643Z,5.90
2023-05-12T22:40:09.185Z,6.13
2023-05-12T22:42:36.216Z,6.40
2023-05-12T22:45:04.735Z,5.93
2023-05-12T22:47:32.374Z,6.13
2023-05-12T22:50:00.572Z,6.18
2023-05-12T22:52:27.470Z,6.25
2023-05-12T22:54:54.799Z,6.75
2023-05-12T22:57:22.143Z,6.20
2023-05-12T22:59:49.161Z,5.82
2023-05-12T23:02:16.388Z,6.05
2023-05-12T23:04:43.940Z,6.65
2023-05-12T23:07:10.775Z,6.75
2023-05-12T23:09:37.839Z,7.00
2023-05-12T23:12:05.280Z,6.63
2023-05-12T23:14:32.037Z,6.80
2023-05-12T23:16:58.937Z,6.75
2023-05-12T23:19:25.910Z,7.22
2023-05-12T23:21:52.705Z,7.40
2023-05-12T23:24:19.430Z,7.15
2023-05-12T23:26:46.204Z,7.13
2023-05-12T23:29:13.017Z,6.75
2023-05-12T23:31:39.846Z,7.47
2023-05-12T23:34:06.681Z,7.20
2023-05-12T23:36:33.456Z,6.18
2023-05-12T23:39:00.316Z,7.63
2023-05-12T23:41:31.510Z,7.50
2023-05-12T23:43:58.691Z,7.43
2023-05-12T23:46:26.085Z,7.72
2023-05-12T23:48:54.322Z,7.65
2023-05-12T23:51:21.082Z,6.78
2023-05-12T23:53:48.122Z,7.97
2023-05-12T23:56:14.846Z,8.18
2023-05-12T23:58:41.868Z,8.30
